Park City, Montana
Current Conditions -  °F | °C
As of 2:53 PM on Saturday 25 Oct 2014 (Local Time) from KBIL Reporting Station
Clear Clear  
Wind Chill: 63°   Ceiling: Unl
Heat Index: 63°   Visibility: 10mi
Dew Point: 36°   Wind: 8mph
Humidity: 37%   Direction: 60°ENE
Pressure: 29.84"   Gusts: NA
Location:  45.63°N, 108.92°W
Report Text: KBIL 252053Z 06007KT 10SM CLR 17/02 A2984 RMK AO2 SLP098 T01720022 56040
Loading
Personal Weather Stations






























Interactive Weather Map
Tropical Storm Tracking
New forecast layout! Learn more

10-Day Weather Forecast

Advertisements
Track Severe Weather on mobile